This is the latest recevied weather packets stored in our database for station/object OE-11331. If no packets are shown the sender has not sent any weather packets the latest 10 day(s).
| Time | Temp. | Humidity | Pressure | Rain* | Wind** | Luminosity | Snow |
|---|---|---|---|---|---|---|---|
| 1788008734 | 24.44° C | 50% | 1015.1 hPa | 0 mm | - | 357 W/m² | - |
| 1788008134 | 23.89° C | 49% | 1015.3 hPa | 0 mm | - | 336 W/m² | - |
| 1788007307 | 23.89° C | 52% | 1015.4 hPa | 0 mm | - | 552 W/m² | - |
| 1788006934 | 23.89° C | 51% | 1015.4 hPa | 0 mm | - | 671 W/m² | - |
| 1788006334 | 23.33° C | 56% | 1015.7 hPa | 0 mm | - | 639 W/m² | - |
| 1788005506 | 22.78° C | 58% | 1016 hPa | 0 mm | - | 357 W/m² | - |
| 1788005134 | 21.67° C | 56% | 1016.2 hPa | 0 mm | - | 292 W/m² | - |
| 1788004534 | 21.67° C | 58% | 1016.5 hPa | 0 mm | - | 357 W/m² | - |
| 1788003707 | 21.67° C | 59% | 1016.6 hPa | 0 mm | - | 498 W/m² | - |
| 1788003334 | 20.56° C | 60% | 1016.8 hPa | 0 mm | - | 368 W/m² | - |
| 1788002734 | 20.56° C | 65% | 1016.8 hPa | 0 mm | - | 227 W/m² | - |
| 1788001907 | 20.56° C | 66% | 1016.8 hPa | 0 mm | - | 292 W/m² | - |
| 1788001533 | 19.44° C | 66% | 1017.1 hPa | 0 mm | - | 206 W/m² | - |
| 1788000934 | 20° C | 66% | 1017.2 hPa | 0 mm | - | 162 W/m² | - |
| 1788000107 | 20.56° C | 64% | 1017 hPa | 0 mm | - | 216 W/m² | - |
| 1787999734 | 20° C | 67% | 1017 hPa | 0 mm | - | 336 W/m² | - |
| 1787999134 | 21.11° C | 63% | 1017 hPa | 0 mm | - | 487 W/m² | - |
| 1787998307 | 21.67° C | 61% | 1016.7 hPa | 0 mm | - | 855 W/m² | - |
| 1787997933 | 21.67° C | 59% | 1016.6 hPa | 0 mm | - | 433 W/m² | - |
| 1787997334 | 22.22° C | 52% | 1016.6 hPa | 0 mm | - | 238 W/m² | - |
| 1787996507 | 22.22° C | 54% | 1016.4 hPa | 0 mm | - | 173 W/m² | - |
| 1787996134 | 22.22° C | 51% | 1016.4 hPa | 0 mm | - | 97 W/m² | - |
| 1787995534 | 22.22° C | 52% | 1016.5 hPa | 0 mm | - | 87 W/m² | - |
| 1787994707 | 22.22° C | 52% | 1016.6 hPa | 0 mm | - | 119 W/m² | - |
| 1787994334 | 22.78° C | 51% | 1016 hPa | 0 mm | - | 227 W/m² | - |
* Rain latest hour (hover to see other rain measurements)
** Current wind speed in m/s (hover to see current wind gust speed)